createdAt,value
2023-04-30T00:00:25.258Z,4.60
2023-04-30T00:02:46.813Z,4.80
2023-04-30T00:05:09.318Z,4.67
2023-04-30T00:07:32.564Z,4.60
2023-04-30T00:09:54.199Z,4.63
2023-04-30T00:12:15.269Z,4.10
2023-04-30T00:14:36.708Z,4.83
2023-04-30T00:16:57.957Z,4.70
2023-04-30T00:19:19.681Z,4.60
2023-04-30T00:21:41.122Z,4.33
2023-04-30T00:24:03.889Z,4.60
2023-04-30T00:26:25.152Z,4.30
2023-04-30T00:28:46.441Z,4.27
2023-04-30T00:31:09.271Z,4.20
2023-04-30T00:33:30.716Z,3.83
2023-04-30T00:35:52.134Z,4.50
2023-04-30T00:38:13.567Z,4.40
2023-04-30T00:40:36.917Z,4.30
2023-04-30T00:43:00.548Z,3.90
2023-04-30T00:45:22.581Z,4.13
2023-04-30T00:47:43.954Z,4.20
2023-04-30T00:50:05.710Z,4.23
2023-04-30T00:52:27.407Z,4.30
2023-04-30T00:54:48.746Z,3.90
2023-04-30T00:57:13.267Z,4.30
2023-04-30T00:59:35.058Z,4.27
2023-04-30T01:01:56.728Z,4.73
2023-04-30T01:04:18.535Z,4.37
2023-04-30T01:06:40.189Z,4.70
2023-04-30T01:09:02.241Z,4.87
2023-04-30T01:11:27.219Z,4.40
2023-04-30T01:13:54.162Z,4.97
2023-04-30T01:16:19.155Z,5.23
2023-04-30T01:18:42.012Z,4.53
2023-04-30T01:21:05.310Z,4.90
2023-04-30T01:23:32.652Z,4.77
2023-04-30T01:26:01.665Z,4.53
2023-04-30T01:28:25.584Z,4.93
2023-04-30T01:30:46.797Z,5.10
2023-04-30T01:33:07.938Z,4.97
2023-04-30T01:35:35.833Z,5.30
2023-04-30T01:38:03.511Z,5.23
2023-04-30T01:40:25.849Z,5.87
2023-04-30T01:42:51.150Z,5.40
2023-04-30T01:45:18.927Z,5.10
2023-04-30T01:47:40.699Z,5.70
2023-04-30T01:50:07.184Z,5.60
2023-04-30T01:52:32.934Z,5.57
2023-04-30T01:54:57.007Z,5.43
2023-04-30T01:57:22.296Z,5.70
2023-04-30T01:59:44.041Z,5.70
2023-04-30T02:02:07.185Z,5.23
2023-04-30T02:04:28.672Z,5.47
2023-04-30T02:06:50.301Z,6.20
2023-04-30T02:09:11.793Z,6.47
2023-04-30T02:11:32.883Z,6.43
2023-04-30T02:13:54.320Z,6.33
2023-04-30T02:16:15.272Z,6.50
2023-04-30T02:18:38.123Z,6.00
2023-04-30T02:20:59.501Z,5.87
2023-04-30T02:23:20.890Z,5.33
2023-04-30T02:25:42.450Z,5.33
2023-04-30T02:28:03.729Z,5.90
2023-04-30T02:30:25.068Z,6.07
2023-04-30T02:32:46.526Z,6.13
2023-04-30T02:35:09.650Z,6.43
2023-04-30T02:37:31.043Z,6.80
2023-04-30T02:39:52.947Z,7.30
2023-04-30T02:42:14.301Z,7.23
2023-04-30T02:44:35.892Z,7.67
2023-04-30T02:46:57.401Z,7.70
2023-04-30T02:49:18.889Z,7.37
2023-04-30T02:51:41.334Z,7.70
2023-04-30T02:54:02.764Z,8.30
2023-04-30T02:56:24.081Z,8.20
2023-04-30T02:58:45.460Z,7.97
2023-04-30T03:01:07.056Z,8.17
2023-04-30T03:03:28.263Z,8.57
2023-04-30T03:05:49.529Z,8.93
2023-04-30T03:08:12.941Z,8.77
2023-04-30T03:10:34.408Z,9.30
2023-04-30T03:12:55.810Z,8.50
2023-04-30T03:15:17.195Z,8.40
2023-04-30T03:17:38.758Z,8.50
2023-04-30T03:20:00.135Z,8.30
2023-04-30T03:22:23.790Z,8.37
2023-04-30T03:24:46.342Z,8.53
2023-04-30T03:27:07.524Z,8.83
2023-04-30T03:29:29.362Z,7.90
2023-04-30T03:31:51.157Z,8.13
2023-04-30T03:34:12.526Z,9.20
2023-04-30T03:36:33.784Z,9.30
2023-04-30T03:38:55.006Z,8.73
2023-04-30T03:41:17.768Z,8.80
2023-04-30T03:43:39.424Z,9.33
2023-04-30T03:46:00.852Z,9.23
2023-04-30T03:48:22.501Z,9.33
2023-04-30T03:50:43.644Z,9.17
2023-04-30T03:53:05.901Z,8.90
2023-04-30T03:55:27.218Z,9.53
2023-04-30T03:57:49.790Z,9.50
2023-04-30T04:00:13.402Z,10.47
2023-04-30T04:02:34.666Z,9.43
2023-04-30T04:04:55.709Z,9.67
2023-04-30T04:07:16.997Z,8.83
2023-04-30T04:09:38.847Z,10.50
2023-04-30T04:12:01.429Z,8.83
2023-04-30T04:14:24.337Z,9.37
2023-04-30T04:16:45.729Z,10.47
2023-04-30T04:19:06.805Z,10.33
2023-04-30T04:21:28.942Z,10.00
2023-04-30T04:23:50.858Z,9.57
2023-04-30T04:26:12.658Z,9.50
2023-04-30T04:28:33.741Z,8.97
2023-04-30T04:30:56.351Z,9.13
2023-04-30T04:33:17.568Z,9.97
2023-04-30T04:35:38.920Z,9.43
2023-04-30T04:38:00.272Z,9.33
2023-04-30T04:40:21.630Z,9.80
2023-04-30T04:42:43.148Z,10.03
2023-04-30T04:45:05.373Z,10.27
2023-04-30T04:47:28.048Z,9.97
2023-04-30T04:49:49.626Z,10.20
2023-04-30T04:52:11.051Z,9.93
2023-04-30T04:54:32.982Z,9.67
2023-04-30T04:56:54.210Z,9.87
2023-04-30T04:59:15.483Z,9.80
2023-04-30T05:01:36.576Z,10.43
2023-04-30T05:03:59.551Z,10.40
2023-04-30T05:06:21.024Z,10.60
2023-04-30T05:08:42.265Z,10.40
2023-04-30T05:11:04.683Z,10.43
2023-04-30T05:13:26.620Z,11.00
2023-04-30T05:15:48.112Z,10.80
2023-04-30T05:18:09.278Z,10.93
2023-04-30T05:20:32.100Z,10.93
2023-04-30T05:22:53.427Z,10.50
2023-04-30T05:25:14.734Z,10.80
2023-04-30T05:27:36.562Z,10.50
2023-04-30T05:29:57.960Z,10.40
2023-04-30T05:32:19.229Z,10.63
2023-04-30T05:34:40.785Z,10.23
2023-04-30T05:37:04.015Z,10.73
2023-04-30T05:39:25.439Z,10.00
2023-04-30T05:41:46.903Z,10.57
2023-04-30T05:44:08.156Z,10.70
2023-04-30T05:46:29.558Z,11.10
2023-04-30T05:48:51.379Z,10.30
2023-04-30T05:51:12.748Z,10.50
2023-04-30T05:53:35.963Z,10.50
2023-04-30T05:55:57.494Z,10.53
2023-04-30T05:58:18.780Z,10.50
2023-04-30T06:00:40.165Z,10.40
2023-04-30T06:03:01.645Z,10.33
2023-04-30T06:05:22.879Z,10.30
2023-04-30T06:07:44.136Z,10.00
2023-04-30T06:10:08.004Z,10.60
2023-04-30T06:12:29.603Z,9.87
2023-04-30T06:14:50.781Z,10.47
2023-04-30T06:17:12.094Z,9.53
2023-04-30T06:19:33.390Z,9.90
2023-04-30T06:21:54.774Z,11.27
2023-04-30T06:24:16.178Z,10.00
2023-04-30T06:26:39.084Z,10.30
2023-04-30T06:29:00.922Z,9.40
2023-04-30T06:31:22.436Z,11.13
2023-04-30T06:33:44.163Z,10.40
2023-04-30T06:36:06.184Z,10.13
2023-04-30T06:38:27.226Z,9.40
2023-04-30T06:40:48.835Z,10.40
2023-04-30T06:43:11.343Z,9.53
2023-04-30T06:45:32.818Z,9.80
2023-04-30T06:47:54.022Z,9.53
2023-04-30T06:50:16.011Z,9.80
2023-04-30T06:52:37.080Z,9.13
2023-04-30T06:54:58.362Z,8.93
2023-04-30T06:57:19.615Z,8.97
2023-04-30T06:59:42.382Z,8.90
2023-04-30T07:02:03.862Z,8.23
2023-04-30T07:04:26.178Z,9.17
2023-04-30T07:06:47.644Z,8.93
2023-04-30T07:09:09.064Z,9.37
2023-04-30T07:11:30.618Z,9.23
2023-04-30T07:13:51.819Z,9.43
2023-04-30T07:16:16.760Z,8.67
2023-04-30T07:18:39.598Z,9.70
2023-04-30T07:21:01.216Z,8.90
2023-04-30T07:23:22.720Z,9.30
2023-04-30T07:25:44.074Z,9.80
2023-04-30T07:28:05.475Z,9.23
2023-04-30T07:30:27.028Z,9.23
2023-04-30T07:32:50.262Z,8.33
2023-04-30T07:35:11.358Z,8.80
2023-04-30T07:37:35.265Z,8.67
2023-04-30T07:39:57.410Z,7.73
2023-04-30T07:42:18.759Z,8.53
2023-04-30T07:44:41.161Z,9.00
2023-04-30T07:47:02.384Z,8.87
2023-04-30T07:49:25.106Z,7.90
2023-04-30T07:51:46.876Z,8.50
2023-04-30T07:54:08.277Z,8.17
2023-04-30T07:56:29.519Z,8.00
2023-04-30T07:58:50.929Z,7.33
2023-04-30T08:01:12.445Z,7.60
2023-04-30T08:03:34.167Z,7.60
2023-04-30T08:05:56.945Z,6.97
2023-04-30T08:08:18.254Z,6.80
2023-04-30T08:10:41.837Z,7.40
2023-04-30T08:13:03.131Z,7.07
2023-04-30T08:15:24.424Z,7.67
2023-04-30T08:17:45.701Z,7.77
2023-04-30T08:20:08.140Z,7.20
2023-04-30T08:22:30.966Z,7.33
2023-04-30T08:24:52.174Z,7.67
2023-04-30T08:27:13.741Z,7.83
2023-04-30T08:29:35.712Z,7.50
2023-04-30T08:31:58.915Z,6.80
2023-04-30T08:34:20.010Z,6.50
2023-04-30T08:36:41.491Z,7.40
2023-04-30T08:39:04.426Z,6.50
2023-04-30T08:41:27.361Z,6.57
2023-04-30T08:43:49.722Z,6.80
2023-04-30T08:46:13.075Z,6.63
2023-04-30T08:48:34.533Z,6.00
2023-04-30T08:50:55.608Z,6.10
2023-04-30T08:53:17.877Z,6.10
2023-04-30T08:55:40.813Z,6.13
2023-04-30T08:58:02.621Z,6.10
2023-04-30T09:00:24.108Z,5.97
2023-04-30T09:02:45.937Z,6.10
2023-04-30T09:05:08.817Z,5.67
2023-04-30T09:07:31.654Z,5.93
2023-04-30T09:09:54.390Z,5.43
2023-04-30T09:12:19.408Z,5.73
2023-04-30T09:14:41.312Z,5.27
2023-04-30T09:17:02.717Z,5.53
2023-04-30T09:19:24.588Z,5.47
2023-04-30T09:21:46.974Z,5.10
2023-04-30T09:24:08.476Z,5.17
2023-04-30T09:26:32.213Z,5.30
2023-04-30T09:28:58.731Z,5.07
2023-04-30T09:31:20.572Z,4.97
2023-04-30T09:33:46.613Z,5.10
2023-04-30T09:36:10.172Z,4.70
2023-04-30T09:38:32.338Z,4.70
2023-04-30T09:40:53.438Z,4.47
2023-04-30T09:43:14.866Z,4.40
2023-04-30T09:45:48.318Z,4.60
2023-04-30T09:48:17.193Z,5.03
2023-04-30T09:50:41.886Z,4.33
2023-04-30T09:53:06.562Z,4.67
2023-04-30T09:55:27.914Z,4.63
2023-04-30T09:57:49.244Z,4.10
2023-04-30T10:00:11.857Z,4.30
2023-04-30T10:02:35.062Z,3.97
2023-04-30T10:04:57.506Z,3.90
2023-04-30T10:07:22.063Z,4.23
2023-04-30T10:09:49.257Z,3.90
2023-04-30T10:12:14.916Z,3.33
2023-04-30T10:14:36.274Z,3.70
2023-04-30T10:17:00.049Z,3.60
2023-04-30T10:19:24.504Z,3.43
2023-04-30T10:21:46.908Z,3.60
2023-04-30T10:24:09.560Z,3.63
2023-04-30T10:26:31.162Z,3.67
2023-04-30T10:28:54.110Z,3.63
2023-04-30T10:31:15.625Z,3.87
2023-04-30T10:33:49.628Z,3.90
2023-04-30T10:36:14.715Z,3.60
2023-04-30T10:38:37.407Z,3.63
2023-04-30T10:40:58.988Z,3.50
2023-04-30T10:43:22.141Z,3.40
2023-04-30T10:45:44.715Z,3.50
2023-04-30T10:48:06.234Z,4.00
2023-04-30T10:50:27.483Z,3.80
2023-04-30T10:53:03.136Z,3.77
2023-04-30T10:55:26.113Z,4.00
2023-04-30T10:57:49.941Z,4.17
2023-04-30T11:00:20.810Z,4.00
2023-04-30T11:02:42.566Z,3.73
2023-04-30T11:05:13.836Z,3.70
2023-04-30T11:07:34.995Z,3.87
2023-04-30T11:09:58.530Z,4.00
2023-04-30T11:12:21.485Z,4.23
2023-04-30T11:14:43.954Z,4.00
2023-04-30T11:17:05.268Z,4.43
2023-04-30T11:19:28.389Z,3.97
2023-04-30T11:22:04.467Z,3.73
2023-04-30T11:24:50.504Z,4.10
2023-04-30T11:27:14.010Z,3.87
2023-04-30T11:29:35.503Z,4.00
2023-04-30T11:31:57.442Z,3.70
2023-04-30T11:34:19.490Z,3.70
2023-04-30T11:36:41.736Z,3.80
2023-04-30T11:39:06.236Z,3.80
2023-04-30T11:41:27.836Z,3.60
2023-04-30T11:43:50.401Z,3.60
2023-04-30T11:46:13.707Z,3.53
2023-04-30T11:48:35.836Z,3.50
2023-04-30T11:50:57.332Z,3.63
2023-04-30T11:53:18.772Z,3.40
2023-04-30T11:55:41.762Z,3.70
2023-04-30T11:58:03.926Z,3.90
2023-04-30T12:00:28.788Z,3.73
2023-04-30T12:02:50.690Z,3.80
2023-04-30T12:05:17.162Z,3.60
2023-04-30T12:07:38.727Z,3.87
2023-04-30T12:10:00.216Z,3.87
2023-04-30T12:12:27.747Z,4.20
2023-04-30T12:14:49.044Z,4.10
2023-04-30T12:17:11.913Z,4.20
2023-04-30T12:19:34.495Z,4.03
2023-04-30T12:21:55.873Z,4.40
2023-04-30T12:24:17.875Z,4.40
2023-04-30T12:26:40.113Z,4.10
2023-04-30T12:29:01.432Z,4.40
2023-04-30T12:31:22.754Z,3.97
2023-04-30T12:33:45.784Z,4.40
2023-04-30T12:36:10.956Z,3.87
2023-04-30T12:38:32.428Z,3.97
2023-04-30T12:40:53.895Z,4.20
2023-04-30T12:43:16.631Z,3.80
2023-04-30T12:45:45.253Z,3.93
2023-04-30T12:48:06.894Z,3.93
2023-04-30T12:50:29.670Z,3.90
2023-04-30T12:52:50.829Z,4.10
2023-04-30T12:55:15.937Z,3.90
2023-04-30T12:57:38.346Z,4.07
2023-04-30T13:00:00.970Z,3.70
2023-04-30T13:02:24.489Z,3.83
2023-04-30T13:04:45.758Z,3.47
2023-04-30T13:07:08.663Z,3.13
2023-04-30T13:09:29.970Z,3.30
2023-04-30T13:11:51.360Z,3.50
2023-04-30T13:14:13.124Z,3.33
2023-04-30T13:16:35.043Z,3.50
2023-04-30T13:18:57.001Z,3.87
2023-04-30T13:21:18.364Z,3.40
2023-04-30T13:23:51.135Z,3.43
2023-04-30T13:26:14.110Z,3.60
2023-04-30T13:28:35.592Z,3.50
2023-04-30T13:30:57.003Z,3.53
2023-04-30T13:33:18.602Z,3.20
2023-04-30T13:35:40.116Z,3.50
2023-04-30T13:38:01.530Z,3.30
2023-04-30T13:40:24.418Z,3.13
2023-04-30T13:42:46.456Z,3.10
2023-04-30T13:45:08.270Z,3.23
2023-04-30T13:47:29.461Z,3.23
2023-04-30T13:49:50.860Z,3.40
2023-04-30T13:52:12.281Z,3.50
2023-04-30T13:54:33.915Z,3.37
2023-04-30T13:56:57.031Z,3.20
2023-04-30T13:59:18.966Z,3.50
2023-04-30T14:01:40.422Z,3.13
2023-04-30T14:04:02.140Z,3.17
2023-04-30T14:06:23.609Z,3.17
2023-04-30T14:08:44.874Z,3.10
2023-04-30T14:11:06.605Z,2.90
2023-04-30T14:13:29.597Z,2.90
2023-04-30T14:15:50.684Z,3.17
2023-04-30T14:18:12.274Z,2.80
2023-04-30T14:20:34.001Z,3.27
2023-04-30T14:22:55.452Z,3.60
2023-04-30T14:25:17.297Z,3.10
2023-04-30T14:27:38.484Z,3.30
2023-04-30T14:30:01.223Z,3.40
2023-04-30T14:32:22.772Z,3.20
2023-04-30T14:34:44.768Z,3.53
2023-04-30T14:37:06.753Z,3.70
2023-04-30T14:39:28.291Z,3.53
2023-04-30T14:41:49.921Z,3.30
2023-04-30T14:44:11.760Z,3.73
2023-04-30T14:46:34.758Z,3.37
2023-04-30T14:48:56.072Z,3.50
2023-04-30T14:51:17.394Z,3.30
2023-04-30T14:53:39.099Z,3.50
2023-04-30T14:56:00.435Z,3.30
2023-04-30T14:58:21.744Z,3.00
2023-04-30T15:00:43.063Z,3.20
2023-04-30T15:03:06.031Z,3.07
2023-04-30T15:05:27.620Z,3.40
2023-04-30T15:07:49.022Z,3.40
2023-04-30T15:10:10.962Z,3.03
2023-04-30T15:12:31.906Z,2.87
2023-04-30T15:14:53.312Z,2.83
2023-04-30T15:17:14.760Z,3.10
2023-04-30T15:19:37.162Z,2.93
2023-04-30T15:21:58.405Z,2.90
2023-04-30T15:24:19.783Z,2.70
2023-04-30T15:26:41.255Z,3.00
2023-04-30T15:29:02.935Z,2.70
2023-04-30T15:31:24.318Z,2.67
2023-04-30T15:33:45.590Z,3.03
2023-04-30T15:36:08.651Z,3.00
2023-04-30T15:38:30.089Z,2.83
2023-04-30T15:40:51.741Z,3.00
2023-04-30T15:43:12.796Z,2.73
2023-04-30T15:45:34.730Z,3.10
2023-04-30T15:47:56.264Z,2.97
2023-04-30T15:50:17.875Z,3.20
2023-04-30T15:52:40.471Z,2.80
2023-04-30T15:55:01.736Z,3.30
2023-04-30T15:57:23.362Z,3.00
2023-04-30T15:59:44.313Z,3.00
2023-04-30T16:02:06.194Z,3.20
2023-04-30T16:04:27.472Z,3.10
2023-04-30T16:06:49.205Z,2.90
2023-04-30T16:09:12.901Z,3.30
2023-04-30T16:11:34.150Z,3.30
2023-04-30T16:13:55.255Z,3.27
2023-04-30T16:16:16.793Z,3.07
2023-04-30T16:18:38.008Z,3.50
2023-04-30T16:21:00.412Z,3.30
2023-04-30T16:23:21.598Z,3.30
2023-04-30T16:25:44.035Z,3.50
2023-04-30T16:28:05.258Z,3.70
2023-04-30T16:30:26.368Z,3.30
2023-04-30T16:32:47.775Z,3.40
2023-04-30T16:35:09.526Z,3.17
2023-04-30T16:37:31.168Z,3.30
2023-04-30T16:39:52.822Z,3.20
2023-04-30T16:42:15.848Z,3.23
2023-04-30T16:44:37.407Z,3.20
2023-04-30T16:46:59.837Z,3.10
2023-04-30T16:49:22.524Z,3.57
2023-04-30T16:51:44.064Z,3.70
2023-04-30T16:54:05.381Z,3.23
2023-04-30T16:56:26.926Z,4.03
2023-04-30T16:58:49.467Z,3.50
2023-04-30T17:01:10.554Z,3.87
2023-04-30T17:03:35.162Z,3.73
2023-04-30T17:05:57.001Z,3.77
2023-04-30T17:08:18.234Z,3.00
2023-04-30T17:10:39.779Z,3.23
2023-04-30T17:13:02.126Z,3.60
2023-04-30T17:15:24.978Z,3.43
2023-04-30T17:17:46.142Z,3.40
2023-04-30T17:20:08.263Z,3.50
2023-04-30T17:22:29.268Z,3.60
2023-04-30T17:24:50.661Z,3.80
2023-04-30T17:27:11.826Z,3.50
2023-04-30T17:29:33.205Z,4.13
2023-04-30T17:31:56.139Z,3.30
2023-04-30T17:34:17.581Z,3.37
2023-04-30T17:36:39.062Z,3.60
2023-04-30T17:39:03.455Z,3.67
2023-04-30T17:41:25.529Z,3.63
2023-04-30T17:43:46.770Z,4.03
2023-04-30T17:46:08.217Z,3.50
2023-04-30T17:48:31.771Z,3.60
2023-04-30T17:50:52.832Z,3.57
2023-04-30T17:53:14.512Z,3.60
2023-04-30T17:55:35.763Z,3.50
2023-04-30T17:57:59.277Z,3.93
2023-04-30T18:00:20.819Z,3.97
2023-04-30T18:02:42.371Z,3.53
2023-04-30T18:05:05.202Z,4.10
2023-04-30T18:07:26.266Z,3.63
2023-04-30T18:09:47.803Z,4.10
2023-04-30T18:12:09.366Z,3.63
2023-04-30T18:14:30.481Z,3.83
2023-04-30T18:16:52.286Z,3.67
2023-04-30T18:19:13.663Z,4.00
2023-04-30T18:21:36.105Z,3.47
2023-04-30T18:23:58.135Z,3.90
2023-04-30T18:26:20.719Z,3.20
2023-04-30T18:28:42.492Z,3.50
2023-04-30T18:31:03.501Z,3.90
2023-04-30T18:33:25.118Z,3.80
2023-04-30T18:35:50.260Z,3.87
2023-04-30T18:38:12.931Z,4.07
2023-04-30T18:40:34.370Z,3.60
2023-04-30T18:42:56.762Z,3.63
2023-04-30T18:45:18.248Z,4.67
2023-04-30T18:47:39.497Z,4.77
2023-04-30T18:50:00.671Z,4.43
2023-04-30T18:52:22.521Z,4.30
2023-04-30T18:54:45.351Z,4.47
2023-04-30T18:57:06.800Z,4.70
2023-04-30T18:59:28.863Z,4.40
2023-04-30T19:01:50.605Z,4.90
2023-04-30T19:04:15.814Z,4.23
2023-04-30T19:06:37.625Z,4.80
2023-04-30T19:08:59.751Z,4.43
2023-04-30T19:11:22.414Z,4.50
2023-04-30T19:13:43.467Z,4.30
2023-04-30T19:16:04.828Z,4.13
2023-04-30T19:18:25.992Z,4.37
2023-04-30T19:20:57.159Z,4.20
2023-04-30T19:23:18.382Z,4.50
2023-04-30T19:25:40.078Z,4.60
2023-04-30T19:28:02.335Z,4.67
2023-04-30T19:30:23.652Z,4.90
2023-04-30T19:32:45.146Z,4.57
2023-04-30T19:35:07.072Z,4.60
2023-04-30T19:37:28.308Z,4.57
2023-04-30T19:39:49.729Z,4.87
2023-04-30T19:42:11.211Z,4.83
2023-04-30T19:44:34.047Z,4.60
2023-04-30T19:46:55.143Z,5.33
2023-04-30T19:49:16.473Z,5.50
2023-04-30T19:51:37.696Z,5.50
2023-04-30T19:54:00.012Z,7.40
2023-04-30T19:56:21.616Z,6.27
2023-04-30T19:58:43.860Z,6.20
2023-04-30T20:01:06.366Z,6.60
2023-04-30T20:03:28.846Z,6.90
2023-04-30T20:05:50.148Z,6.50
2023-04-30T20:08:11.715Z,6.63
2023-04-30T20:10:33.951Z,6.80
2023-04-30T20:12:55.752Z,6.80
2023-04-30T20:15:17.185Z,6.60
2023-04-30T20:17:40.130Z,6.50
2023-04-30T20:20:01.242Z,6.10
2023-04-30T20:22:22.731Z,6.00
2023-04-30T20:24:44.988Z,6.13
2023-04-30T20:27:07.416Z,6.60
2023-04-30T20:29:29.397Z,6.00
2023-04-30T20:31:51.787Z,6.37
2023-04-30T20:34:14.736Z,6.33
2023-04-30T20:36:36.043Z,7.10
2023-04-30T20:38:57.352Z,6.43
2023-04-30T20:41:19.005Z,6.47
2023-04-30T20:43:41.505Z,6.00
2023-04-30T20:46:02.932Z,6.10
2023-04-30T20:48:23.972Z,6.10
2023-04-30T20:50:46.974Z,5.90
2023-04-30T20:53:10.835Z,5.93
2023-04-30T20:55:32.855Z,6.60
2023-04-30T20:57:54.079Z,6.20
2023-04-30T21:00:15.801Z,5.43
2023-04-30T21:02:36.986Z,5.80
2023-04-30T21:04:58.677Z,6.10
2023-04-30T21:07:21.556Z,6.13
2023-04-30T21:09:44.225Z,6.10
2023-04-30T21:12:05.489Z,6.60
2023-04-30T21:14:26.787Z,6.40
2023-04-30T21:16:48.655Z,6.60
2023-04-30T21:19:11.142Z,7.20
2023-04-30T21:21:32.373Z,7.07
2023-04-30T21:23:55.059Z,6.80
2023-04-30T21:26:16.566Z,6.80
2023-04-30T21:28:37.970Z,6.50
2023-04-30T21:30:59.525Z,6.70
2023-04-30T21:33:21.062Z,6.90
2023-04-30T21:35:42.239Z,7.20
2023-04-30T21:38:03.913Z,6.90
2023-04-30T21:40:26.502Z,7.70
2023-04-30T21:42:47.802Z,7.77
2023-04-30T21:45:09.983Z,8.00
2023-04-30T21:47:31.711Z,7.33
2023-04-30T21:49:53.248Z,7.67
2023-04-30T21:52:14.533Z,7.50
2023-04-30T21:54:35.798Z,7.30
2023-04-30T21:56:58.439Z,7.60
2023-04-30T21:59:19.503Z,7.37
2023-04-30T22:01:40.746Z,7.47
2023-04-30T22:04:02.110Z,8.43
2023-04-30T22:06:23.467Z,7.87
2023-04-30T22:08:44.694Z,8.73
2023-04-30T22:11:05.838Z,7.93
2023-04-30T22:13:29.222Z,8.63
2023-04-30T22:15:51.707Z,7.97
2023-04-30T22:18:13.091Z,8.00
2023-04-30T22:20:34.766Z,8.40
2023-04-30T22:22:56.041Z,8.07
2023-04-30T22:25:17.809Z,7.77
2023-04-30T22:27:39.186Z,7.90
2023-04-30T22:30:01.861Z,7.33
2023-04-30T22:32:23.274Z,7.80
2023-04-30T22:34:44.710Z,7.20
2023-04-30T22:37:06.085Z,7.57
2023-04-30T22:39:27.157Z,8.17
2023-04-30T22:41:48.596Z,8.10
2023-04-30T22:44:10.034Z,7.30
2023-04-30T22:46:33.649Z,8.17
2023-04-30T22:48:55.597Z,7.77
2023-04-30T22:51:18.538Z,8.03
2023-04-30T22:53:39.953Z,8.37
2023-04-30T22:56:01.077Z,8.00
2023-04-30T22:58:22.402Z,8.17
2023-04-30T23:00:43.912Z,10.20
2023-04-30T23:03:06.636Z,8.60
2023-04-30T23:05:28.069Z,8.87
2023-04-30T23:07:49.779Z,8.40
2023-04-30T23:10:11.796Z,8.53
2023-04-30T23:12:33.102Z,8.40
2023-04-30T23:14:54.354Z,8.93
2023-04-30T23:17:15.849Z,9.20
2023-04-30T23:19:38.453Z,8.97
2023-04-30T23:21:59.605Z,9.00
2023-04-30T23:24:21.054Z,9.87
2023-04-30T23:26:42.356Z,10.47
2023-04-30T23:29:03.871Z,9.43
2023-04-30T23:31:25.338Z,10.00
2023-04-30T23:33:46.688Z,9.20
2023-04-30T23:36:09.473Z,9.60
2023-04-30T23:38:30.689Z,9.40
2023-04-30T23:40:51.998Z,10.10
2023-04-30T23:43:13.462Z,9.73
2023-04-30T23:45:35.368Z,9.83
2023-04-30T23:47:56.720Z,9.97
2023-04-30T23:50:18.454Z,10.27
2023-04-30T23:52:40.953Z,10.13
2023-04-30T23:55:02.536Z,10.33
2023-04-30T23:57:25.160Z,10.50
2023-04-30T23:59:47.265Z,10.90
